Time,TemperatureF,DewpointF,PressureIn,WindDirection,WindDirectionDegrees,WindSpeedMPH,WindSpeedGustMPH,Humidity,HourlyPrecipIn,Conditions,Clouds,dailyrainin,SoftwareType,DateUTC
2013-01-07 00:11:00,25.0,24.5,30.25,ENE,67,0.0,-999.0,98,-99.99,,,0.00,Acu-Link.com,2013-01-07 06:11:00,
2013-01-07 00:26:00,24.4,24.0,30.24,ENE,67,0.0,-999.0,98,-99.99,,,0.00,Acu-Link.com,2013-01-07 06:26:00,
2013-01-07 00:41:00,24.3,23.8,30.24,ENE,67,0.0,-999.0,98,-99.99,,,0.00,Acu-Link.com,2013-01-07 06:41:00,
2013-01-07 00:57:00,24.1,23.6,30.23,ENE,67,0.0,-999.0,98,-99.99,,,0.00,Acu-Link.com,2013-01-07 06:57:00,
2013-01-07 01:12:00,24.1,23.6,30.23,ENE,67,0.0,-999.0,98,-99.99,,,0.00,Acu-Link.com,2013-01-07 07:12:00,
2013-01-07 01:27:00,23.7,23.2,30.22,ENE,67,0.0,-999.0,98,-99.99,,,0.00,Acu-Link.com,2013-01-07 07:27:00,
2013-01-07 01:42:00,23.5,23.1,30.21,ENE,67,0.0,-999.0,98,-99.99,,,0.00,Acu-Link.com,2013-01-07 07:42:00,
2013-01-07 01:57:00,23.4,22.9,30.21,WSW,247,0.0,-999.0,98,-99.99,,,0.00,Acu-Link.com,2013-01-07 07:57:00,
2013-01-07 02:13:00,23.2,22.7,30.21,WSW,247,0.0,-999.0,98,-99.99,,,0.00,Acu-Link.com,2013-01-07 08:13:00,
2013-01-07 02:28:00,22.8,22.3,30.21,WSW,247,0.0,-999.0,98,-99.99,,,0.00,Acu-Link.com,2013-01-07 08:28:00,
2013-01-07 02:43:00,22.5,22.0,30.21,WSW,247,0.0,-999.0,98,-99.99,,,0.00,Acu-Link.com,2013-01-07 08:43:00,
2013-01-07 02:58:00,22.5,22.0,30.21,WSW,247,0.0,-999.0,98,-99.99,,,0.00,Acu-Link.com,2013-01-07 08:58:00,
2013-01-07 03:13:00,22.3,21.8,30.21,WSW,247,0.0,-999.0,98,-99.99,,,0.00,Acu-Link.com,2013-01-07 09:13:00,
2013-01-07 03:28:00,22.1,21.6,30.21,WSW,247,0.0,-999.0,98,-99.99,,,0.00,Acu-Link.com,2013-01-07 09:28:00,
2013-01-07 03:44:00,22.6,22.2,30.20,NNW,337,0.0,-999.0,98,-99.99,,,0.00,Acu-Link.com,2013-01-07 09:44:00,
2013-01-07 03:59:00,23.0,22.0,30.20,NNE,22,0.0,-999.0,96,-99.99,,,0.00,Acu-Link.com,2013-01-07 09:59:00,
2013-01-07 04:14:00,23.0,22.3,30.18,NNE,22,0.0,-999.0,97,-99.99,,,0.00,Acu-Link.com,2013-01-07 10:14:00,
2013-01-07 04:29:00,22.8,22.1,30.18,West,270,0.0,-999.0,97,-99.99,,,0.00,Acu-Link.com,2013-01-07 10:29:00,
2013-01-07 04:44:00,23.0,22.3,30.18,ESE,112,0.0,-999.0,97,-99.99,,,0.00,Acu-Link.com,2013-01-07 10:44:00,
2013-01-07 05:00:00,24.1,23.6,30.19,SSE,157,0.0,-999.0,98,-99.99,,,0.00,Acu-Link.com,2013-01-07 11:00:00,
2013-01-07 05:15:00,23.7,23.2,30.19,South,180,0.0,-999.0,98,-99.99,,,0.00,Acu-Link.com,2013-01-07 11:15:00,
2013-01-07 05:30:00,23.7,23.2,30.20,South,180,0.0,-999.0,98,-99.99,,,0.00,Acu-Link.com,2013-01-07 11:30:00,
2013-01-07 05:45:00,24.6,22.4,30.20,ENE,67,0.0,-999.0,91,-99.99,,,0.00,Acu-Link.com,2013-01-07 11:45:00,
2013-01-07 06:00:00,25.0,23.5,30.18,NE,45,0.0,-999.0,94,-99.99,,,0.00,Acu-Link.com,2013-01-07 12:00:00,
2013-01-07 06:16:00,25.3,24.6,30.18,NE,45,0.0,-999.0,97,-99.99,,,0.00,Acu-Link.com,2013-01-07 12:16:00,
2013-01-07 06:31:00,25.2,24.7,30.18,NE,45,0.0,-999.0,98,-99.99,,,0.00,Acu-Link.com,2013-01-07 12:31:00,
2013-01-07 06:46:00,24.4,24.0,30.19,NE,45,0.0,-999.0,98,-99.99,,,0.00,Acu-Link.com,2013-01-07 12:46:00,
2013-01-07 07:01:00,23.9,23.4,30.19,SSE,157,0.0,-999.0,98,-99.99,,,0.00,Acu-Link.com,2013-01-07 13:01:00,
2013-01-07 07:16:00,24.6,23.6,30.18,North,0,0.0,-999.0,96,-99.99,,,0.00,Acu-Link.com,2013-01-07 13:16:00,
2013-01-07 07:32:00,24.6,24.1,30.17,NNE,22,0.0,-999.0,98,-99.99,,,0.00,Acu-Link.com,2013-01-07 13:32:00,
2013-01-07 07:47:00,24.6,24.1,30.17,NNE,22,0.0,-999.0,98,-99.99,,,0.00,Acu-Link.com,2013-01-07 13:47:00,
2013-01-07 08:02:00,24.6,24.1,30.18,NNE,22,0.0,-999.0,98,-99.99,,,0.00,Acu-Link.com,2013-01-07 14:02:00,
2013-01-07 08:17:00,25.9,25.4,30.18,NNE,22,0.0,-999.0,98,-99.99,,,0.00,Acu-Link.com,2013-01-07 14:17:00,
2013-01-07 08:33:00,26.6,26.1,30.19,NW,315,0.0,-999.0,98,-99.99,,,0.00,Acu-Link.com,2013-01-07 14:33:00,
2013-01-07 08:48:00,28.0,27.0,30.19,West,270,0.0,-999.0,96,-99.99,,,0.00,Acu-Link.com,2013-01-07 14:48:00,
2013-01-07 09:03:00,31.8,31.3,30.19,West,270,0.0,-999.0,98,-99.99,,,0.00,Acu-Link.com,2013-01-07 15:03:00,
2013-01-07 09:18:00,36.0,34.9,30.20,NE,45,0.0,-999.0,96,-99.99,,,0.00,Acu-Link.com,2013-01-07 15:18:00,
2013-01-07 09:33:00,38.8,34.7,30.20,South,180,2.2,-999.0,85,-99.99,,,0.00,Acu-Link.com,2013-01-07 15:33:00,
2013-01-07 09:49:00,40.3,34.9,30.21,South,180,1.1,-999.0,81,-99.99,,,0.00,Acu-Link.com,2013-01-07 15:49:00,
2013-01-07 10:04:00,42.6,36.6,30.20,ESE,112,0.0,-999.0,79,-99.99,,,0.00,Acu-Link.com,2013-01-07 16:04:00,
2013-01-07 10:19:00,45.7,36.1,30.20,SSE,157,2.2,-999.0,69,-99.99,,,0.00,Acu-Link.com,2013-01-07 16:19:00,
2013-01-07 10:34:00,47.3,36.1,30.20,ESE,112,2.2,-999.0,65,-99.99,,,0.00,Acu-Link.com,2013-01-07 16:34:00,
2013-01-07 10:49:00,48.7,35.9,30.20,ESE,112,1.6,-999.0,61,-99.99,,,0.00,Acu-Link.com,2013-01-07 16:49:00,
2013-01-07 11:05:00,50.0,35.8,30.19,South,180,2.7,-999.0,58,-99.99,,,0.00,Acu-Link.com,2013-01-07 17:05:00,
2013-01-07 11:20:00,50.0,35.4,30.19,SE,135,1.6,-999.0,57,-99.99,,,0.00,Acu-Link.com,2013-01-07 17:20:00,
2013-01-07 11:35:00,49.6,35.5,30.18,SSE,157,6.3,-999.0,58,-99.99,,,0.00,Acu-Link.com,2013-01-07 17:35:00,
2013-01-07 11:50:00,50.0,35.4,30.16,South,180,3.1,-999.0,57,-99.99,,,0.00,Acu-Link.com,2013-01-07 17:50:00,
2013-01-07 12:05:00,51.3,36.6,30.14,SW,225,5.1,-999.0,57,-99.99,,,0.00,Acu-Link.com,2013-01-07 18:05:00,
2013-01-07 12:21:00,52.2,36.5,30.14,SE,135,3.8,-999.0,55,-99.99,,,0.00,Acu-Link.com,2013-01-07 18:21:00,
2013-01-07 12:36:00,52.5,35.4,30.12,SSE,157,2.7,-999.0,52,-99.99,,,0.00,Acu-Link.com,2013-01-07 18:36:00,
2013-01-07 12:51:00,54.0,36.2,30.10,NNE,22,2.7,-999.0,51,-99.99,,,0.00,Acu-Link.com,2013-01-07 18:51:00,
2013-01-07 13:06:00,55.0,36.2,30.09,ESE,112,2.7,-999.0,49,-99.99,,,0.00,Acu-Link.com,2013-01-07 19:06:00,
2013-01-07 13:22:00,53.2,36.6,30.07,West,270,0.0,-999.0,53,-99.99,,,0.00,Acu-Link.com,2013-01-07 19:22:00,
2013-01-07 13:37:00,54.3,36.1,30.06,SSE,157,2.7,-999.0,50,-99.99,,,0.00,Acu-Link.com,2013-01-07 19:37:00,
2013-01-07 13:52:00,54.5,37.2,30.05,ENE,67,1.6,-999.0,52,-99.99,,,0.00,Acu-Link.com,2013-01-07 19:52:00,
2013-01-07 14:07:00,53.6,37.4,30.04,NE,45,2.7,-999.0,54,-99.99,,,0.00,Acu-Link.com,2013-01-07 20:07:00,
2013-01-07 14:22:00,54.1,37.4,30.03,ESE,112,2.7,-999.0,53,-99.99,,,0.00,Acu-Link.com,2013-01-07 20:22:00,
2013-01-07 14:38:00,53.6,36.9,30.04,South,180,3.1,-999.0,53,-99.99,,,0.00,Acu-Link.com,2013-01-07 20:38:00,
2013-01-07 14:53:00,53.1,36.9,30.03,SSW,202,2.7,-999.0,54,-99.99,,,0.00,Acu-Link.com,2013-01-07 20:53:00,
2013-01-07 15:08:00,53.1,37.3,30.04,SSE,157,4.7,-999.0,55,-99.99,,,0.00,Acu-Link.com,2013-01-07 21:08:00,
2013-01-07 15:23:00,52.7,36.5,30.04,South,180,4.7,-999.0,54,-99.99,,,0.00,Acu-Link.com,2013-01-07 21:23:00,
2013-01-07 15:38:00,52.7,36.5,30.05,NNW,337,2.7,-999.0,54,-99.99,,,0.00,Acu-Link.com,2013-01-07 21:38:00,
2013-01-07 15:54:00,52.2,35.6,30.03,SE,135,3.1,-999.0,53,-99.99,,,0.00,Acu-Link.com,2013-01-07 21:54:00,
2013-01-07 16:09:00,52.3,35.7,30.04,SSE,157,2.2,-999.0,53,-99.99,,,0.00,Acu-Link.com,2013-01-07 22:09:00,
2013-01-07 16:24:00,52.0,35.4,30.04,NE,45,1.6,-999.0,53,-99.99,,,0.00,Acu-Link.com,2013-01-07 22:24:00,
2013-01-07 16:39:00,51.4,35.8,30.05,SE,135,2.7,-999.0,55,-99.99,,,0.00,Acu-Link.com,2013-01-07 22:39:00,
2013-01-07 16:54:00,51.3,36.6,30.03,SSW,202,1.6,-999.0,57,-99.99,,,0.00,Acu-Link.com,2013-01-07 22:54:00,
2013-01-07 17:09:00,51.6,36.9,30.04,SE,135,2.7,-999.0,57,-99.99,,,0.00,Acu-Link.com,2013-01-07 23:09:00,
2013-01-07 17:25:00,50.5,36.3,30.04,North,0,1.1,-999.0,58,-99.99,,,0.00,Acu-Link.com,2013-01-07 23:25:00,
2013-01-07 17:40:00,49.3,36.4,30.01,East,90,0.0,-999.0,61,-99.99,,,0.00,Acu-Link.com,2013-01-07 23:40:00,
2013-01-07 17:55:00,48.2,36.6,30.01,SSE,157,0.0,-999.0,64,-99.99,,,0.00,Acu-Link.com,2013-01-07 23:55:00,
2013-01-07 18:10:00,47.3,36.9,30.02,East,90,3.1,-999.0,67,-99.99,,,0.00,Acu-Link.com,2013-01-08 00:10:00,
2013-01-07 18:26:00,46.9,36.9,30.01,NNE,22,1.1,-999.0,68,-99.99,,,0.00,Acu-Link.com,2013-01-08 00:26:00,
2013-01-07 18:41:00,46.2,36.6,30.01,NNE,22,0.0,-999.0,69,-99.99,,,0.00,Acu-Link.com,2013-01-08 00:41:00,
2013-01-07 18:56:00,45.1,35.6,30.01,West,270,0.0,-999.0,69,-99.99,,,0.00,Acu-Link.com,2013-01-08 00:56:00,
2013-01-07 19:11:00,43.7,36.0,30.01,SSW,202,0.0,-999.0,74,-99.99,,,0.00,Acu-Link.com,2013-01-08 01:11:00,
2013-01-07 19:26:00,43.9,36.5,30.02,SSW,202,0.0,-999.0,75,-99.99,,,0.00,Acu-Link.com,2013-01-08 01:26:00,
2013-01-07 19:42:00,43.9,36.8,30.01,SW,225,0.0,-999.0,76,-99.99,,,0.00,Acu-Link.com,2013-01-08 01:42:00,
2013-01-07 19:57:00,44.1,37.3,30.02,ESE,112,0.0,-999.0,77,-99.99,,,0.00,Acu-Link.com,2013-01-08 01:57:00,
2013-01-07 20:12:00,44.2,37.5,30.01,South,180,0.0,-999.0,77,-99.99,,,0.00,Acu-Link.com,2013-01-08 02:12:00,
2013-01-07 20:27:00,45.1,38.0,30.02,NNW,337,0.0,-999.0,76,-99.99,,,0.00,Acu-Link.com,2013-01-08 02:27:00,
2013-01-07 20:42:00,45.3,37.9,30.02,South,180,0.0,-999.0,75,-99.99,,,0.00,Acu-Link.com,2013-01-08 02:42:00,
2013-01-07 20:58:00,44.4,37.3,30.03,SSE,157,0.0,-999.0,76,-99.99,,,0.00,Acu-Link.com,2013-01-08 02:58:00,
2013-01-07 21:13:00,43.3,36.9,30.02,ESE,112,0.0,-999.0,78,-99.99,,,0.00,Acu-Link.com,2013-01-08 03:13:00,
2013-01-07 21:28:00,42.3,37.2,30.01,West,270,0.0,-999.0,82,-99.99,,,0.00,Acu-Link.com,2013-01-08 03:28:00,
2013-01-07 21:43:00,41.9,37.4,30.01,SW,225,0.0,-999.0,84,-99.99,,,0.00,Acu-Link.com,2013-01-08 03:43:00,
2013-01-07 21:58:00,42.1,37.9,30.00,SSE,157,0.0,-999.0,85,-99.99,,,0.00,Acu-Link.com,2013-01-08 03:58:00,
2013-01-07 22:14:00,41.9,38.0,30.00,NW,315,0.0,-999.0,86,-99.99,,,0.00,Acu-Link.com,2013-01-08 04:14:00,
2013-01-07 22:29:00,41.2,37.3,30.00,WSW,247,0.0,-999.0,86,-99.99,,,0.00,Acu-Link.com,2013-01-08 04:29:00,
2013-01-07 22:44:00,40.5,37.5,29.99,NW,315,0.0,-999.0,89,-99.99,,,0.00,Acu-Link.com,2013-01-08 04:44:00,
2013-01-07 22:59:00,39.9,37.2,29.99,NNW,337,0.0,-999.0,90,-99.99,,,0.00,Acu-Link.com,2013-01-08 04:59:00,
2013-01-07 23:14:00,39.4,37.0,29.98,NNW,337,0.0,-999.0,91,-99.99,,,0.00,Acu-Link.com,2013-01-08 05:14:00,
2013-01-07 23:30:00,38.8,37.0,29.99,NNW,337,0.0,-999.0,93,-99.99,,,0.00,Acu-Link.com,2013-01-08 05:30:00,
2013-01-07 23:45:00,37.9,36.4,29.98,NNW,337,0.0,-999.0,94,-99.99,,,0.00,Acu-Link.com,2013-01-08 05:45:00,